sensor_id;sensor_type;location;lat;lon;timestamp;P1;durP1;ratioP1;P2;durP2;ratioP2
37377;SDS011;23248;48.120;14.854;2022-11-23T00:19:24;18.10;;;11.53;;
37377;SDS011;23248;48.120;14.854;2022-11-23T00:21:49;14.80;;;11.20;;
37377;SDS011;23248;48.120;14.854;2022-11-23T00:24:15;16.67;;;11.27;;
37377;SDS011;23248;48.120;14.854;2022-11-23T00:29:06;16.40;;;11.17;;
37377;SDS011;23248;48.120;14.854;2022-11-23T00:31:32;18.80;;;11.95;;
37377;SDS011;23248;48.120;14.854;2022-11-23T00:36:24;16.77;;;11.33;;
37377;SDS011;23248;48.120;14.854;2022-11-23T00:38:51;14.67;;;11.10;;
37377;SDS011;23248;48.120;14.854;2022-11-23T00:41:20;18.50;;;11.83;;
37377;SDS011;23248;48.120;14.854;2022-11-23T00:43:47;16.60;;;11.43;;
37377;SDS011;23248;48.120;14.854;2022-11-23T00:48:43;17.30;;;11.70;;
37377;SDS011;23248;48.120;14.854;2022-11-23T00:51:11;17.77;;;11.87;;
37377;SDS011;23248;48.120;14.854;2022-11-23T01:39:52;16.73;;;11.27;;
37377;SDS011;23248;48.120;14.854;2022-11-23T06:54:01;36.53;;;19.27;;
37377;SDS011;23248;48.120;14.854;2022-11-23T06:56:27;50.73;;;21.57;;
37377;SDS011;23248;48.120;14.854;2022-11-23T06:58:54;39.70;;;19.87;;
37377;SDS011;23248;48.120;14.854;2022-11-23T07:01:20;39.27;;;19.77;;
37377;SDS011;23248;48.120;14.854;2022-11-23T07:03:46;34.80;;;18.93;;
37377;SDS011;23248;48.120;14.854;2022-11-23T07:06:11;29.30;;;17.63;;
37377;SDS011;23248;48.120;14.854;2022-11-23T07:08:37;32.60;;;17.73;;
37377;SDS011;23248;48.120;14.854;2022-11-23T07:11:07;30.30;;;18.30;;
37377;SDS011;23248;48.120;14.854;2022-11-23T07:13:34;27.80;;;16.47;;
37377;SDS011;23248;48.120;14.854;2022-11-23T07:16:00;30.83;;;16.20;;
37377;SDS011;23248;48.120;14.854;2022-11-23T07:18:25;28.33;;;15.67;;
37377;SDS011;23248;48.120;14.854;2022-11-23T07:20:51;28.47;;;15.73;;
37377;SDS011;23248;48.120;14.854;2022-11-23T07:23:17;30.00;;;16.60;;
37377;SDS011;23248;48.120;14.854;2022-11-23T07:25:42;30.40;;;16.50;;
37377;SDS011;23248;48.120;14.854;2022-11-23T07:28:09;31.67;;;16.70;;
37377;SDS011;23248;48.120;14.854;2022-11-23T07:30:36;27.87;;;15.00;;
37377;SDS011;23248;48.120;14.854;2022-11-23T07:33:02;36.87;;;15.57;;
37377;SDS011;23248;48.120;14.854;2022-11-23T07:35:30;27.37;;;15.97;;
37377;SDS011;23248;48.120;14.854;2022-11-23T07:37:57;27.47;;;15.90;;
37377;SDS011;23248;48.120;14.854;2022-11-23T07:40:23;32.13;;;16.13;;
37377;SDS011;23248;48.120;14.854;2022-11-23T07:42:50;26.93;;;15.47;;
37377;SDS011;23248;48.120;14.854;2022-11-23T07:45:16;25.17;;;14.33;;
37377;SDS011;23248;48.120;14.854;2022-11-23T07:47:42;26.80;;;14.47;;
37377;SDS011;23248;48.120;14.854;2022-11-23T07:50:08;25.47;;;14.73;;
37377;SDS011;23248;48.120;14.854;2022-11-23T07:52:35;22.73;;;13.77;;
37377;SDS011;23248;48.120;14.854;2022-11-23T07:55:01;27.37;;;14.60;;
37377;SDS011;23248;48.120;14.854;2022-11-23T07:57:28;21.90;;;13.60;;
37377;SDS011;23248;48.120;14.854;2022-11-23T07:59:53;28.00;;;14.57;;
37377;SDS011;23248;48.120;14.854;2022-11-23T08:02:19;25.50;;;13.63;;
37377;SDS011;23248;48.120;14.854;2022-11-23T08:04:45;25.53;;;13.73;;
37377;SDS011;23248;48.120;14.854;2022-11-23T08:07:11;24.60;;;13.63;;
37377;SDS011;23248;48.120;14.854;2022-11-23T08:09:36;27.93;;;14.17;;
37377;SDS011;23248;48.120;14.854;2022-11-23T08:12:02;31.17;;;14.80;;
37377;SDS011;23248;48.120;14.854;2022-11-23T08:14:28;24.70;;;13.20;;
37377;SDS011;23248;48.120;14.854;2022-11-23T08:16:54;25.87;;;14.07;;
37377;SDS011;23248;48.120;14.854;2022-11-23T08:19:20;38.10;;;19.27;;
37377;SDS011;23248;48.120;14.854;2022-11-23T08:21:46;35.07;;;16.77;;
37377;SDS011;23248;48.120;14.854;2022-11-23T08:24:11;27.17;;;15.53;;
37377;SDS011;23248;48.120;14.854;2022-11-23T08:26:37;29.30;;;15.40;;
37377;SDS011;23248;48.120;14.854;2022-11-23T08:29:03;33.20;;;17.03;;
37377;SDS011;23248;48.120;14.854;2022-11-23T08:31:29;28.47;;;15.30;;
37377;SDS011;23248;48.120;14.854;2022-11-23T08:33:55;23.77;;;13.33;;
37377;SDS011;23248;48.120;14.854;2022-11-23T08:36:21;24.10;;;13.87;;
37377;SDS011;23248;48.120;14.854;2022-11-23T08:38:47;22.57;;;13.83;;
37377;SDS011;23248;48.120;14.854;2022-11-23T08:41:15;24.43;;;13.50;;
37377;SDS011;23248;48.120;14.854;2022-11-23T08:43:45;19.80;;;12.17;;
37377;SDS011;23248;48.120;14.854;2022-11-23T08:46:14;22.87;;;13.20;;
37377;SDS011;23248;48.120;14.854;2022-11-23T08:48:40;27.27;;;14.00;;
37377;SDS011;23248;48.120;14.854;2022-11-23T08:51:06;26.27;;;13.30;;
37377;SDS011;23248;48.120;14.854;2022-11-23T08:53:32;26.13;;;13.33;;
37377;SDS011;23248;48.120;14.854;2022-11-23T08:56:02;30.03;;;14.33;;
37377;SDS011;23248;48.120;14.854;2022-11-23T08:58:29;23.47;;;13.10;;
37377;SDS011;23248;48.120;14.854;2022-11-23T09:00:55;27.90;;;13.83;;
37377;SDS011;23248;48.120;14.854;2022-11-23T09:03:21;27.43;;;13.77;;
37377;SDS011;23248;48.120;14.854;2022-11-23T09:05:46;27.83;;;14.10;;
37377;SDS011;23248;48.120;14.854;2022-11-23T09:08:12;27.30;;;14.10;;
37377;SDS011;23248;48.120;14.854;2022-11-23T09:15:31;27.87;;;14.83;;
37377;SDS011;23248;48.120;14.854;2022-11-23T09:17:57;25.33;;;14.27;;
37377;SDS011;23248;48.120;14.854;2022-11-23T09:20:23;24.73;;;13.60;;
37377;SDS011;23248;48.120;14.854;2022-11-23T09:27:41;27.50;;;15.67;;
37377;SDS011;23248;48.120;14.854;2022-11-23T09:30:07;31.43;;;14.80;;
37377;SDS011;23248;48.120;14.854;2022-11-23T09:32:33;25.87;;;16.47;;
37377;SDS011;23248;48.120;14.854;2022-11-23T16:39:27;55.93;;;28.87;;
37377;SDS011;23248;48.120;14.854;2022-11-23T18:29:24;34.90;;;19.20;;
37377;SDS011;23248;48.120;14.854;2022-11-23T21:21:23;26.20;;;15.10;;
